Time;durP1;ratioP1;P1;durP2;ratioP2;P2;SDS_P1;SDS_P2;PMS_P1;PMS_P2;Temp;Humidity;BMP_temperature;BMP_pressure;BME280_temperature;BME280_humidity;BME280_pressure;Samples;Min_cycle;Max_cycle;Signal;HPM_P1;HPM_P2
2021/12/08 00:02:12;;;;;;;69.43;24.83;;;;;;;;;;5030365;28;20879;-71
2021/12/08 00:04:38;;;;;;;76.15;26.75;;;;;;;;;;5028331;28;20061;-71
2021/12/08 00:07:04;;;;;;;72.88;25.30;;;;;;;;;;5034291;28;20029;-71
2021/12/08 00:09:49;;;;;;;76.07;26.90;;;0.60;99.90;;;;;;5023204;28;20042;-71
2021/12/08 00:14:59;;;;;;;72.80;25.13;;;;;;;;;;5034701;28;20032;-71
2021/12/08 00:17:25;;;;;;;79.13;24.92;;;;;;;;;;5027576;28;20065;-71
2021/12/08 00:19:51;;;;;;;76.72;27.50;;;;;;;;;;5028824;28;20096;-72
2021/12/08 00:22:17;;;;;;;75.93;26.85;;;;;;;;;;5025391;28;20029;-71
2021/12/08 00:24:44;;;;;;;72.57;24.90;;;;;;;;;;5028876;28;20082;-71
2021/12/08 00:27:10;;;;;;;75.57;27.50;;;;;;;;;;5027834;28;20044;-72
2021/12/08 00:29:36;;;;;;;69.45;25.45;;;;;;;;;;5027483;28;20492;-71
2021/12/08 00:32:02;;;;;;;78.07;26.83;;;;;;;;;;5030863;28;20029;-71
2021/12/08 00:34:30;;;;;;;64.93;25.23;;;;;;;;;;5026586;28;20064;-71
2021/12/08 00:36:59;;;;;;;71.53;24.40;;;;;;;;;;5029214;28;20099;-71
2021/12/08 00:39:25;;;;;;;69.10;26.10;;;;;;;;;;5038245;28;20103;-72
2021/12/08 00:41:51;;;;;;;70.80;25.13;;;;;;;;;;5033124;28;20040;-71
2021/12/08 00:44:17;;;;;;;68.25;23.90;;;;;;;;;;5030827;28;20033;-71
2021/12/08 00:46:44;;;;;;;70.40;25.42;;;;;;;;;;5026467;28;20129;-70
2021/12/08 00:49:11;;;;;;;76.78;24.80;;;;;;;;;;5028100;28;20039;-70
2021/12/08 00:51:37;;;;;;;65.07;23.90;;;;;;;;;;5036599;28;20095;-71
2021/12/08 00:54:03;;;;;;;68.82;24.65;;;;;;;;;;5030665;28;20136;-71
2021/12/08 00:56:29;;;;;;;74.80;25.17;;;;;;;;;;5026251;28;20405;-71
2021/12/08 00:58:55;;;;;;;63.83;24.15;;;;;;;;;;5026244;28;20033;-71
2021/12/08 01:01:22;;;;;;;69.70;25.50;;;;;;;;;;5026450;28;20033;-71
2021/12/08 01:03:49;;;;;;;64.15;24.95;;;;;;;;;;5034071;28;20951;-71
2021/12/08 01:06:15;;;;;;;72.78;26.83;;;;;;;;;;5041810;28;20033;-71
2021/12/08 01:08:41;;;;;;;72.75;24.50;;;;;;;;;;5032746;28;20042;-71
2021/12/08 01:11:07;;;;;;;64.25;25.20;;;;;;;;;;5011421;28;20021;-70
2021/12/08 01:13:33;;;;;;;66.38;24.40;;;;;;;;;;5027567;28;20033;-70
2021/12/08 01:15:59;;;;;;;69.35;24.08;;;;;;;;;;5031104;28;20041;-70
2021/12/08 01:18:25;;;;;;;64.22;23.58;;;;;;;;;;5040640;28;20174;-70
2021/12/08 01:20:51;;;;;;;60.60;23.17;;;;;;;;;;5030246;28;20925;-71
2021/12/08 01:23:17;;;;;;;68.93;24.40;;;;;;;;;;5027320;28;20104;-71
2021/12/08 01:25:43;;;;;;;73.85;25.40;;;;;;;;;;5026727;28;20034;-70
2021/12/08 01:28:09;;;;;;;72.22;25.10;;;;;;;;;;5028154;28;20072;-70
2021/12/08 01:30:35;;;;;;;70.57;24.80;;;;;;;;;;5026951;28;20141;-71
2021/12/08 01:33:01;;;;;;;67.85;24.70;;;;;;;;;;5026849;28;20029;-71
2021/12/08 01:35:27;;;;;;;61.15;21.75;;;;;;;;;;5030331;28;20025;-70
2021/12/08 01:37:53;;;;;;;72.22;24.58;;;;;;;;;;5028984;28;20033;-70
2021/12/08 01:40:19;;;;;;;66.53;24.73;;;;;;;;;;5037826;28;20448;-71
2021/12/08 01:42:47;;;;;;;65.22;24.38;;;;;;;;;;5034864;28;20032;-71
2021/12/08 01:47:58;;;;;;;66.77;23.80;;;;;;;;;;5030095;28;20094;-71
2021/12/08 01:50:24;;;;;;;64.63;24.27;;;;;;;;;;5035184;28;20033;-72
2021/12/08 01:52:50;;;;;;;66.93;23.40;;;;;;;;;;5025683;28;20044;-71
2021/12/08 01:55:16;;;;;;;62.90;23.40;;;;;;;;;;5033710;28;20094;-71
2021/12/08 01:57:42;;;;;;;68.03;25.23;;;;;;;;;;5024934;28;20154;-71
2021/12/08 02:00:08;;;;;;;66.97;24.75;;;;;;;;;;5026982;28;20112;-72
2021/12/08 02:02:34;;;;;;;72.22;25.88;;;;;;;;;;5033381;28;20041;-72
2021/12/08 02:05:00;;;;;;;67.35;25.13;;;;;;;;;;5035842;28;20036;-72
2021/12/08 02:07:25;;;;;;;64.55;25.58;;;;;;;;;;5031097;28;20037;-71
2021/12/08 02:09:52;;;;;;;67.97;24.25;;;;;;;;;;5025737;28;20781;-72
2021/12/08 02:12:18;;;;;;;61.92;23.58;;;;;;;;;;5025059;28;20049;-71
2021/12/08 02:14:44;;;;;;;68.03;25.88;;;;;;;;;;5023115;28;20038;-71
2021/12/08 02:17:10;;;;;;;66.70;24.63;;;-0.40;99.90;;;;;;5038024;28;20040;-71
2021/12/08 02:19:36;;;;;;;69.38;25.00;;;;;;;;;;5034078;28;20136;-71
2021/12/08 02:22:02;;;;;;;65.63;25.17;;;;;;;;;;5024840;28;20024;-70
2021/12/08 02:24:28;;;;;;;70.03;23.77;;;;;;;;;;5024526;28;20025;-71
2021/12/08 02:26:55;;;;;;;70.60;25.67;;;;;;;;;;5027667;28;20462;-71
2021/12/08 02:29:27;;;;;;;58.70;23.83;;;;;;;;;;5037225;28;20102;-70
2021/12/08 02:32:01;;;;;;;58.30;22.02;;;;;;;;;;5031467;28;20458;-71
2021/12/08 02:48:10;;;;;;;56.33;21.57;;;;;;;;;;5025226;28;20472;-71
2021/12/08 02:50:36;;;;;;;69.72;24.90;;;;;;;;;;5024421;28;20029;-70
2021/12/08 02:53:02;;;;;;;62.42;23.58;;;;;;;;;;5029440;28;20617;-72
2021/12/08 02:55:28;;;;;;;67.47;23.45;;;;;;;;;;5008853;28;20047;-71
2021/12/08 02:57:54;;;;;;;54.40;21.98;;;;;;;;;;5024055;28;20040;-71
2021/12/08 03:00:23;;;;;;;68.47;21.95;;;;;;;;;;5028069;28;20120;-71
2021/12/08 03:02:49;;;;;;;60.78;23.77;;;;;;;;;;5026616;28;20377;-70
2021/12/08 03:05:15;;;;;;;62.42;23.25;;;;;;;;;;5027786;28;20032;-70
2021/12/08 03:07:42;;;;;;;65.28;24.25;;;;;;;;;;5035186;28;20499;-71
2021/12/08 03:10:07;;;;;;;61.47;21.95;;;;;;;;;;5027651;28;20506;-71
2021/12/08 03:12:33;;;;;;;71.25;23.63;;;;;;;;;;5026344;28;20065;-71
2021/12/08 03:14:59;;;;;;;62.47;23.38;;;0.00;99.90;;;;;;5028176;28;20086;-71
2021/12/08 03:17:25;;;;;;;57.20;21.50;;;;;;;;;;5026259;28;20037;-71
2021/12/08 03:19:51;;;;;;;63.10;21.80;;;;;;;;;;5033417;28;20229;-71
2021/12/08 03:22:17;;;;;;;58.67;22.88;;;;;;;;;;5026666;28;20033;-71
2021/12/08 03:24:46;;;;;;;53.58;21.05;;;;;;;;;;5023281;28;20034;-71
2021/12/08 03:27:15;;;;;;;54.15;21.58;;;;;;;;;;5032438;28;20036;-71
2021/12/08 03:29:48;;;;;;;63.92;23.17;;;;;;;;;;5030386;28;20053;-71
2021/12/08 03:32:17;;;;;;;60.50;22.23;;;;;;;;;;5023260;28;20425;-71
2021/12/08 03:34:49;;;;;;;60.00;21.60;;;;;;;;;;5023810;28;20043;-70
2021/12/08 03:37:15;;;;;;;54.58;22.02;;;;;;;;;;5025090;28;20119;-71
2021/12/08 03:39:41;;;;;;;62.95;21.75;;;;;;;;;;5030419;28;20045;-71
2021/12/08 03:42:07;;;;;;;56.47;22.90;;;;;;;;;;5026807;28;20025;-71
2021/12/08 03:44:34;;;;;;;62.75;22.20;;;;;;;;;;5026921;28;20558;-70
2021/12/08 03:47:01;;;;;;;59.72;23.08;;;;;;;;;;5023894;28;20592;-71
2021/12/08 03:49:26;;;;;;;59.88;23.13;;;;;;;;;;5023279;28;20127;-70
2021/12/08 03:51:52;;;;;;;61.65;22.15;;;;;;;;;;5027208;28;20056;-71
2021/12/08 03:54:18;;;;;;;61.50;23.13;;;;;;;;;;5036254;28;20036;-70
2021/12/08 03:56:44;;;;;;;65.25;23.05;;;;;;;;;;5022831;28;20500;-71
2021/12/08 03:59:10;;;;;;;56.90;22.40;;;;;;;;;;5023228;28;20025;-71
2021/12/08 04:01:36;;;;;;;57.38;23.35;;;;;;;;;;5022987;28;20029;-71
2021/12/08 04:04:06;;;;;;;58.90;21.63;;;;;;;;;;5027289;28;20803;-71
2021/12/08 04:06:39;;;;;;;68.78;22.13;;;;;;;;;;5029696;28;20033;-71
2021/12/08 04:09:13;;;;;;;66.50;22.02;;;;;;;;;;5030400;28;20885;-71
2021/12/08 04:11:39;;;;;;;56.53;21.17;;;;;;;;;;5023694;28;20044;-71
2021/12/08 04:14:05;;;;;;;58.70;21.23;;;;;;;;;;5022963;28;20029;-71
2021/12/08 04:16:31;;;;;;;58.78;21.45;;;;;;;;;;5026102;28;20036;-71
2021/12/08 04:18:57;;;;;;;54.45;20.95;;;;;;;;;;5033875;28;20033;-71
2021/12/08 04:21:23;;;;;;;58.42;22.00;;;;;;;;;;5033329;28;20433;-71
2021/12/08 04:23:49;;;;;;;62.72;21.65;;;;;;;;;;5023593;28;20030;-71
2021/12/08 04:26:14;;;;;;;64.97;22.50;;;-0.10;99.90;;;;;;5021812;28;20029;-71
2021/12/08 04:28:40;;;;;;;55.70;22.17;;;;;;;;;;5022789;28;20042;-72
2021/12/08 04:31:06;;;;;;;53.92;20.50;;;;;;;;;;5033243;28;20461;-71
2021/12/08 04:33:33;;;;;;;61.40;21.75;;;;;;;;;;5023865;28;20041;-70
2021/12/08 04:35:59;;;;;;;53.17;20.30;;;;;;;;;;5023156;28;20041;-70
2021/12/08 04:38:29;;;;;;;55.83;21.13;;;;;;;;;;5030404;28;20045;-70
2021/12/08 05:00:16;;;;;;;60.45;21.25;;;;;;;;;;5026784;28;20492;-70
2021/12/08 05:05:37;;;;;;;56.75;19.88;;;;;;;;;;5031679;28;20801;-71
2021/12/08 05:08:13;;;;;;;54.00;18.85;;;;;;;;;;5023910;28;20030;-70
2021/12/08 05:10:39;;;;;;;47.53;20.17;;;;;;;;;;5024284;28;20045;-71
2021/12/08 05:13:05;;;;;;;49.10;19.60;;;;;;;;;;5022155;28;20026;-71
2021/12/08 05:15:32;;;;;;;51.83;17.60;;;;;;;;;;5025115;28;20030;-70
2021/12/08 05:17:58;;;;;;;45.83;18.02;;;;;;;;;;5035226;28;20079;-71
2021/12/08 05:20:26;;;;;;;47.25;18.98;;;;;;;;;;5027398;28;20037;-71
2021/12/08 05:22:52;;;;;;;49.00;19.70;;;;;;;;;;5025786;28;20029;-71
2021/12/08 05:25:18;;;;;;;44.67;18.55;;;;;;;;;;5025578;28;20100;-71
2021/12/08 05:27:46;;;;;;;42.53;16.02;;;;;;;;;;5032100;28;20033;-70
2021/12/08 05:30:12;;;;;;;43.53;17.73;;;;;;;;;;5036648;28;20036;-71
2021/12/08 05:32:38;;;;;;;46.47;18.38;;;;;;;;;;5027289;28;20065;-70
2021/12/08 05:35:04;;;;;;;49.75;18.65;;;;;;;;;;5025303;28;20029;-71
2021/12/08 05:37:30;;;;;;;51.30;18.67;;;;;;;;;;5029946;28;20040;-70
2021/12/08 05:39:56;;;;;;;52.10;18.80;;;;;;;;;;5025454;28;20537;-71
2021/12/08 05:42:22;;;;;;;44.30;18.15;;;;;;;;;;5032902;28;20046;-71
2021/12/08 05:44:47;;;;;;;52.60;20.50;;;;;;;;;;5037982;28;20051;-72
2021/12/08 05:47:13;;;;;;;48.67;17.98;;;;;;;;;;5007574;28;20025;-72
2021/12/08 05:49:39;;;;;;;48.13;19.63;;;;;;;;;;5025636;28;20553;-71
2021/12/08 05:52:05;;;;;;;47.67;18.73;;;;;;;;;;5025390;28;20036;-71
2021/12/08 05:54:32;;;;;;;47.53;18.05;;;;;;;;;;5029185;28;20828;-72
2021/12/08 05:56:58;;;;;;;47.00;19.42;;;;;;;;;;5032866;28;20488;-72
2021/12/08 05:59:24;;;;;;;48.63;19.05;;;;;;;;;;5026331;28;20044;-72
2021/12/08 06:01:51;;;;;;;46.13;19.08;;;;;;;;;;5029886;28;20039;-71
2021/12/08 06:04:17;;;;;;;50.38;18.38;;;;;;;;;;5024850;28;20079;-71
2021/12/08 06:06:45;;;;;;;45.88;18.73;;;;;;;;;;5028063;28;20042;-71
2021/12/08 06:09:11;;;;;;;45.80;18.67;;;;;;;;;;5023629;28;20049;-71
2021/12/08 06:11:37;;;;;;;50.80;20.45;;;;;;;;;;5024675;28;20053;-71
2021/12/08 06:14:03;;;;;;;47.08;19.13;;;;;;;;;;5022931;28;20037;-71
2021/12/08 06:16:29;;;;;;;48.78;19.42;;;;;;;;;;5028391;28;20122;-71
2021/12/08 06:18:55;;;;;;;46.00;19.30;;;;;;;;;;5018998;28;20559;-71
2021/12/08 06:21:21;;;;;;;49.50;20.10;;;;;;;;;;5031771;28;20068;-71
2021/12/08 06:23:47;;;;;;;54.15;19.75;;;;;;;;;;5025542;28;20063;-71
2021/12/08 06:26:13;;;;;;;51.50;20.02;;;;;;;;;;5025576;28;20043;-71
2021/12/08 06:28:39;;;;;;;46.53;18.33;;;;;;;;;;5025879;28;20044;-71
2021/12/08 06:31:04;;;;;;;49.78;19.95;;;;;;;;;;5030366;28;20033;-71
2021/12/08 06:33:31;;;;;;;49.60;20.10;;;;;;;;;;5028217;28;20536;-72
2021/12/08 06:35:57;;;;;;;47.08;19.23;;;;;;;;;;5024385;28;20417;-71
2021/12/08 06:38:23;;;;;;;51.55;20.17;;;;;;;;;;5026169;28;20028;-70
2021/12/08 06:40:48;;;;;;;45.78;19.17;;;;;;;;;;5024873;28;20572;-70
2021/12/08 06:43:14;;;;;;;46.78;18.52;;;;;;;;;;5030012;28;20469;-70
2021/12/08 06:45:40;;;;;;;43.88;17.98;;;;;;;;;;5038870;28;20029;-72
2021/12/08 06:48:06;;;;;;;44.90;18.13;;;;;;;;;;5025375;28;20099;-71
2021/12/08 06:50:32;;;;;;;47.78;18.00;;;;;;;;;;5027168;28;20044;-70
2021/12/08 06:52:58;;;;;;;48.38;19.85;;;;;;;;;;5025274;28;20026;-71
2021/12/08 06:55:24;;;;;;;47.90;19.33;;;;;;;;;;5024124;28;20121;-70
2021/12/08 06:57:50;;;;;;;51.65;19.23;;;;;;;;;;5026725;28;20041;-71
2021/12/08 07:00:24;;;;;;;44.75;18.45;;;;;;;;;;5024625;28;20128;-71
2021/12/08 07:03:00;;;;;;;49.05;18.98;;;;;;;;;;5015396;28;20028;-70
2021/12/08 07:06:28;;;;;;;45.42;17.75;;;;;;;;;;5027349;28;20748;-71
2021/12/08 07:08:12;;;;;;;47.58;18.55;;;;;;;;;;5021515;28;20709;-71
2021/12/08 07:10:38;;;;;;;47.88;18.50;;;;;;;;;;5022357;28;20033;-71
2021/12/08 07:13:04;;;;;;;47.58;19.38;;;;;;;;;;5024603;28;20129;-71
2021/12/08 07:15:29;;;;;;;48.13;18.40;;;-0.70;99.90;;;;;;5025548;28;20032;-71
2021/12/08 07:17:55;;;;;;;43.15;17.90;;;;;;;;;;5023923;28;20048;-71
2021/12/08 07:22:54;;;;;;;46.90;17.70;;;;;;;;;;5022118;28;20033;-71
2021/12/08 07:25:20;;;;;;;45.78;17.45;;;;;;;;;;5022659;28;20087;-71
2021/12/08 07:27:46;;;;;;;46.35;19.15;;;;;;;;;;5027410;28;20045;-71
2021/12/08 07:30:12;;;;;;;53.53;19.05;;;;;;;;;;5028097;28;20104;-71
2021/12/08 07:32:38;;;;;;;47.33;18.27;;;;;;;;;;5027168;28;20045;-70
2021/12/08 07:35:04;;;;;;;57.08;19.75;;;;;;;;;;5025658;28;20137;-71
2021/12/08 07:37:30;;;;;;;50.00;18.95;;;;;;;;;;5022426;28;20585;-71
2021/12/08 07:39:57;;;;;;;51.30;19.77;;;;;;;;;;5023212;28;20036;-71
2021/12/08 07:42:24;;;;;;;50.33;19.02;;;;;;;;;;5025081;28;20033;-71
2021/12/08 07:44:50;;;;;;;54.80;18.65;;;;;;;;;;5027402;28;20033;-71
2021/12/08 07:47:16;;;;;;;51.20;19.65;;;;;;;;;;5031162;28;20025;-72
2021/12/08 07:49:42;;;;;;;47.67;19.77;;;;;;;;;;5021232;28;20053;-70
2021/12/08 07:52:08;;;;;;;48.42;17.83;;;;;;;;;;5023080;28;20509;-71
2021/12/08 07:54:34;;;;;;;49.25;18.80;;;;;;;;;;5029671;28;20061;-72
2021/12/08 07:57:00;;;;;;;55.38;18.88;;;;;;;;;;5021161;28;20041;-71
2021/12/08 07:59:27;;;;;;;51.47;19.40;;;;;;;;;;5026857;28;20533;-71
2021/12/08 08:01:53;;;;;;;51.28;18.92;;;;;;;;;;5023235;28;20023;-71
2021/12/08 08:04:19;;;;;;;50.95;18.02;;;;;;;;;;5023039;28;20494;-71
2021/12/08 08:06:45;;;;;;;58.75;20.02;;;;;;;;;;5028638;28;20175;-71
2021/12/08 08:09:13;;;;;;;57.67;19.35;;;;;;;;;;5027750;28;20029;-71
2021/12/08 08:11:42;;;;;;;63.33;21.27;;;;;;;;;;5022208;28;20056;-71
2021/12/08 08:14:09;;;;;;;56.28;19.85;;;;;;;;;;5023860;28;20037;-71
2021/12/08 08:16:35;;;;;;;60.30;20.60;;;;;;;;;;5025971;28;20516;-71
2021/12/08 08:19:06;;;;;;;60.38;20.23;;;;;;;;;;5022774;28;20132;-71
2021/12/08 08:21:32;;;;;;;61.72;20.90;;;;;;;;;;5025052;28;20067;-71
2021/12/08 08:23:58;;;;;;;60.25;19.13;;;;;;;;;;5022881;28;20128;-71
2021/12/08 08:26:24;;;;;;;57.65;19.65;;;;;;;;;;5023137;28;20029;-70
2021/12/08 08:28:52;;;;;;;62.17;19.83;;;;;;;;;;5024342;28;20036;-71
2021/12/08 08:31:18;;;;;;;57.13;19.45;;;;;;;;;;5026453;28;20030;-71
2021/12/08 08:33:44;;;;;;;66.65;21.55;;;;;;;;;;5027941;28;20044;-71
2021/12/08 08:36:09;;;;;;;57.97;19.65;;;-0.30;99.90;;;;;;5023979;28;20029;-71
2021/12/08 08:38:35;;;;;;;56.72;19.73;;;;;;;;;;5018624;28;20037;-71
2021/12/08 08:41:01;;;;;;;66.95;21.92;;;;;;;;;;5021026;28;20113;-70
2021/12/08 08:43:27;;;;;;;62.65;20.88;;;;;;;;;;5020381;28;20052;-71
2021/12/08 08:45:53;;;;;;;58.35;20.30;;;;;;;;;;5030062;28;20029;-71
2021/12/08 08:48:19;;;;;;;71.28;20.67;;;;;;;;;;5023857;28;20059;-71
2021/12/08 08:50:45;;;;;;;55.63;19.98;;;;;;;;;;5023011;28;20044;-71
2021/12/08 08:53:11;;;;;;;67.15;20.45;;;;;;;;;;5030566;28;20052;-71
2021/12/08 08:55:37;;;;;;;55.47;20.17;;;;;;;;;;5033810;28;20494;-71
2021/12/08 08:58:03;;;;;;;56.22;20.40;;;;;;;;;;5030614;28;20595;-71
2021/12/08 09:00:31;;;;;;;64.40;20.25;;;;;;;;;;5026732;28;20413;-70
2021/12/08 09:02:57;;;;;;;62.78;20.63;;;;;;;;;;4996408;28;20036;-70
2021/12/08 09:05:23;;;;;;;63.50;19.58;;;;;;;;;;5028220;28;20021;-70
2021/12/08 09:07:50;;;;;;;61.67;20.63;;;;;;;;;;5030725;28;20040;-69
2021/12/08 09:10:16;;;;;;;63.40;21.38;;;;;;;;;;5032620;28;20060;-70
2021/12/08 09:12:42;;;;;;;61.00;20.13;;;;;;;;;;5024506;28;20872;-71
2021/12/08 09:15:08;;;;;;;65.65;20.85;;;;;;;;;;5027409;28;20033;-70
2021/12/08 09:17:35;;;;;;;67.60;22.70;;;;;;;;;;5029483;28;20029;-69
2021/12/08 09:20:02;;;;;;;58.22;19.65;;;;;;;;;;5013530;28;20034;-71
2021/12/08 09:22:30;;;;;;;68.80;23.92;;;;;;;;;;5023831;28;20065;-70
2021/12/08 09:24:56;;;;;;;61.40;20.98;;;;;;;;;;5018992;28;20052;-70
2021/12/08 09:27:22;;;;;;;63.53;21.83;;;;;;;;;;5024410;28;20136;-70
2021/12/08 09:29:48;;;;;;;63.20;20.55;;;;;;;;;;5027232;28;20040;-70
2021/12/08 09:32:17;;;;;;;64.68;20.85;;;;;;;;;;5031594;28;20513;-70
2021/12/08 09:34:45;;;;;;;63.03;20.35;;;;;;;;;;5030790;28;20033;-69
2021/12/08 09:37:11;;;;;;;67.53;21.58;;;;;;;;;;5023640;28;20031;-69
2021/12/08 09:39:37;;;;;;;60.42;21.08;;;;;;;;;;5028276;28;20029;-70
2021/12/08 09:42:03;;;;;;;63.65;20.77;;;;;;;;;;5026877;28;20130;-70
2021/12/08 09:44:29;;;;;;;59.00;20.52;;;;;;;;;;5027305;28;20091;-69
2021/12/08 09:46:55;;;;;;;61.40;19.05;;;;;;;;;;5019898;28;20017;-71
2021/12/08 09:49:23;;;;;;;67.55;20.67;;;;;;;;;;5023759;28;20527;-70
2021/12/08 09:51:49;;;;;;;61.97;19.73;;;;;;;;;;5026036;28;20033;-70
2021/12/08 09:54:15;;;;;;;60.40;19.33;;;;;;;;;;5023916;28;20040;-70
2021/12/08 09:56:41;;;;;;;59.10;19.92;;;;;;;;;;5025152;28;20117;-71
2021/12/08 09:59:09;;;;;;;64.50;19.88;;;;;;;;;;5021252;28;20033;-70
2021/12/08 10:01:38;;;;;;;66.45;22.13;;;;;;;;;;5022322;28;20033;-70
2021/12/08 10:04:03;;;;;;;61.63;19.77;;;;;;;;;;5022182;28;20095;-70
2021/12/08 10:06:29;;;;;;;63.05;21.30;;;;;;;;;;5024571;28;20036;-70
2021/12/08 10:08:57;;;;;;;59.65;20.15;;;;;;;;;;5026757;28;20043;-70
2021/12/08 10:11:23;;;;;;;58.42;20.90;;;;;;;;;;5028714;28;20033;-70
2021/12/08 10:13:49;;;;;;;56.50;18.33;;;;;;;;;;5021634;28;20040;-70
2021/12/08 10:16:15;;;;;;;60.47;19.23;;;;;;;;;;5024985;28;20029;-70
2021/12/08 10:18:42;;;;;;;56.40;19.60;;;;;;;;;;5022299;28;20089;-71
2021/12/08 10:21:07;;;;;;;57.70;18.40;;;;;;;;;;5025566;28;20061;-70
2021/12/08 10:23:34;;;;;;;55.28;19.23;;;;;;;;;;5027428;28;20544;-70
2021/12/08 10:26:00;;;;;;;59.92;19.52;;;;;;;;;;5024970;28;20028;-70
2021/12/08 10:28:26;;;;;;;53.83;18.40;;;;;;;;;;5024601;28;20735;-70
2021/12/08 10:30:53;;;;;;;46.83;17.73;;;;;;;;;;5029781;28;20025;-70
2021/12/08 10:33:19;;;;;;;54.78;18.48;;;;;;;;;;5030175;28;20025;-70
2021/12/08 10:35:47;;;;;;;59.95;18.65;;;;;;;;;;5027956;28;20025;-70
2021/12/08 10:38:15;;;;;;;57.00;18.13;;;;;;;;;;5023694;28;20040;-70
2021/12/08 10:40:41;;;;;;;59.85;19.13;;;;;;;;;;5023599;28;20661;-70
2021/12/08 10:43:07;;;;;;;59.78;19.58;;;;;;;;;;5030962;28;20044;-70
2021/12/08 10:45:35;;;;;;;50.33;18.05;;;;;;;;;;5027623;28;20041;-70
2021/12/08 10:48:01;;;;;;;57.50;19.58;;;;;;;;;;5032378;28;20105;-70
2021/12/08 10:55:56;;;;;;;54.15;18.55;;;;;;;;;;5025512;28;20030;-70
2021/12/08 10:58:22;;;;;;;49.47;18.05;;;;;;;;;;5024910;28;20469;-70
2021/12/08 11:00:48;;;;;;;54.80;18.83;;;;;;;;;;5026247;28;20038;-69
2021/12/08 11:03:16;;;;;;;56.25;18.75;;;;;;;;;;5025212;28;20067;-70
2021/12/08 11:05:42;;;;;;;54.85;18.67;;;;;;;;;;5027677;28;20124;-70
2021/12/08 11:08:08;;;;;;;55.47;18.33;;;;;;;;;;5028064;28;20029;-69
2021/12/08 11:10:34;;;;;;;54.53;18.15;;;;;;;;;;5031333;28;20143;-70
2021/12/08 11:13:00;;;;;;;54.05;17.15;;;;;;;;;;5020851;28;20112;-69
2021/12/08 11:15:26;;;;;;;57.92;17.67;;;;;;;;;;5022596;28;20061;-70
2021/12/08 11:17:52;;;;;;;54.33;17.77;;;;;;;;;;5028283;28;20034;-69
2021/12/08 11:20:18;;;;;;;53.53;18.92;;;;;;;;;;5026383;28;20130;-69
2021/12/08 11:22:48;;;;;;;51.05;17.20;;;;;;;;;;5025464;28;20033;-69
2021/12/08 11:25:21;;;;;;;44.50;17.27;;;;;;;;;;5024767;28;20036;-70
2021/12/08 11:27:47;;;;;;;51.03;17.48;;;;;;;;;;5025339;28;20397;-70
2021/12/08 11:30:13;;;;;;;53.72;18.23;;;;;;;;;;5024553;28;20104;-69
2021/12/08 11:32:39;;;;;;;50.40;18.33;;;;;;;;;;5028490;28;20116;-70
2021/12/08 11:35:05;;;;;;;53.50;18.77;;;;;;;;;;5031563;28;20038;-70
2021/12/08 11:37:34;;;;;;;44.53;16.02;;;;;;;;;;5023155;28;20090;-69
2021/12/08 11:40:01;;;;;;;48.97;16.70;;;1.40;99.90;;;;;;5022495;28;20500;-70
2021/12/08 11:42:28;;;;;;;51.38;18.10;;;;;;;;;;5021372;28;20433;-70
2021/12/08 11:44:54;;;;;;;48.97;17.95;;;;;;;;;;5026972;28;20037;-70
2021/12/08 11:47:22;;;;;;;58.15;19.30;;;;;;;;;;5031172;28;20079;-70
2021/12/08 11:49:48;;;;;;;58.17;18.67;;;;;;;;;;5021596;28;20037;-70
2021/12/08 11:52:17;;;;;;;42.38;15.43;;;;;;;;;;5024072;28;20061;-70
2021/12/08 11:54:43;;;;;;;49.03;16.25;;;;;;;;;;5024400;28;20927;-69
2021/12/08 11:57:10;;;;;;;49.05;15.90;;;;;;;;;;5024635;28;20033;-70
2021/12/08 11:59:37;;;;;;;51.45;17.73;;;;;;;;;;5025530;28;20038;-69
2021/12/08 12:02:03;;;;;;;43.33;18.30;;;;;;;;;;5022961;28;20553;-69
2021/12/08 12:04:29;;;;;;;47.83;17.05;;;;;;;;;;5022513;28;20033;-70
2021/12/08 12:06:55;;;;;;;45.85;16.23;;;;;;;;;;5020963;28;20091;-70
2021/12/08 12:09:21;;;;;;;55.17;18.33;;;;;;;;;;5021948;28;20029;-70
2021/12/08 12:11:49;;;;;;;44.25;17.63;;;;;;;;;;5020783;28;20064;-70
2021/12/08 12:14:15;;;;;;;47.58;17.70;;;1.30;99.90;;;;;;5021966;28;20041;-69
2021/12/08 12:16:41;;;;;;;46.80;17.65;;;;;;;;;;5022075;28;20496;-70
2021/12/08 12:19:07;;;;;;;45.15;16.50;;;;;;;;;;5025886;28;20033;-69
2021/12/08 12:21:33;;;;;;;44.65;16.77;;;;;;;;;;5024520;28;20553;-69
2021/12/08 12:23:59;;;;;;;44.45;16.80;;;;;;;;;;5025268;28;20519;-69
2021/12/08 12:26:25;;;;;;;49.35;17.10;;;;;;;;;;5024464;28;20029;-70
2021/12/08 12:28:51;;;;;;;45.25;16.20;;;;;;;;;;5026389;28;20061;-70
2021/12/08 12:31:19;;;;;;;45.97;16.17;;;;;;;;;;5031741;28;20051;-69
2021/12/08 12:33:45;;;;;;;51.20;17.25;;;;;;;;;;5028524;28;20087;-69
2021/12/08 12:36:11;;;;;;;47.47;16.25;;;;;;;;;;5032470;28;20045;-69
2021/12/08 12:38:37;;;;;;;52.08;17.92;;;;;;;;;;5025878;28;20045;-69
2021/12/08 12:41:03;;;;;;;47.67;18.15;;;;;;;;;;5029686;28;20033;-69
2021/12/08 12:43:29;;;;;;;48.03;17.77;;;;;;;;;;5029441;28;20482;-69
2021/12/08 12:45:55;;;;;;;49.42;18.52;;;;;;;;;;5024541;28;20809;-70
2021/12/08 12:48:21;;;;;;;48.25;17.85;;;;;;;;;;5032593;28;20021;-69
2021/12/08 12:50:47;;;;;;;45.45;16.45;;;;;;;;;;5027358;28;20065;-69
2021/12/08 12:53:13;;;;;;;47.65;17.55;;;;;;;;;;5028117;28;20493;-70
2021/12/08 12:55:39;;;;;;;49.33;16.63;;;;;;;;;;5028225;28;20033;-70
2021/12/08 12:58:05;;;;;;;50.55;18.63;;;;;;;;;;5027650;28;20177;-70
2021/12/08 13:00:31;;;;;;;51.58;19.33;;;;;;;;;;5035083;28;20029;-70
2021/12/08 13:02:57;;;;;;;45.92;16.42;;;;;;;;;;5027430;28;20033;-70
2021/12/08 13:05:23;;;;;;;55.15;19.52;;;;;;;;;;5026765;28;20033;-70
2021/12/08 13:07:49;;;;;;;50.47;17.42;;;;;;;;;;5024148;28;20040;-70
2021/12/08 13:10:19;;;;;;;51.42;18.38;;;;;;;;;;5030443;28;20040;-70
2021/12/08 13:12:45;;;;;;;46.47;17.17;;;1.50;99.90;;;;;;5020973;28;20061;-70
2021/12/08 13:15:13;;;;;;;44.10;17.70;;;;;;;;;;5026727;28;20129;-70
2021/12/08 13:17:39;;;;;;;51.22;19.10;;;;;;;;;;5026691;28;20037;-70
2021/12/08 13:20:05;;;;;;;47.58;17.17;;;;;;;;;;5025133;28;20025;-70
2021/12/08 13:22:31;;;;;;;46.20;17.63;;;;;;;;;;5029102;28;20155;-70
2021/12/08 13:24:57;;;;;;;50.78;18.05;;;;;;;;;;5028737;28;20030;-70
2021/12/08 13:27:29;;;;;;;50.78;17.35;;;;;;;;;;5024463;28;20033;-70
2021/12/08 13:29:54;;;;;;;53.15;18.23;;;;;;;;;;5022702;28;20037;-71
2021/12/08 13:32:28;;;;;;;49.88;17.27;;;;;;;;;;5029450;28;20698;-70
2021/12/08 13:34:54;;;;;;;48.05;17.98;;;;;;;;;;5026007;28;20850;-70
2021/12/08 13:37:20;;;;;;;48.38;16.98;;;;;;;;;;5031045;28;20030;-69
2021/12/08 13:39:46;;;;;;;47.88;17.40;;;;;;;;;;5023441;28;20045;-70
2021/12/08 13:42:12;;;;;;;39.28;15.70;;;;;;;;;;5028498;28;20056;-69
2021/12/08 13:44:38;;;;;;;49.60;17.77;;;;;;;;;;5026346;28;20059;-70
2021/12/08 13:47:04;;;;;;;45.25;15.68;;;;;;;;;;5027246;28;20371;-70
2021/12/08 13:49:31;;;;;;;43.75;16.98;;;;;;;;;;5028695;28;20117;-70
2021/12/08 13:51:57;;;;;;;54.72;18.80;;;;;;;;;;5023114;28;20064;-69
2021/12/08 13:54:23;;;;;;;53.50;17.70;;;;;;;;;;5026809;28;20168;-70
2021/12/08 13:56:49;;;;;;;47.05;16.23;;;;;;;;;;5024186;28;20037;-69
2021/12/08 13:59:15;;;;;;;59.25;19.50;;;;;;;;;;5013406;28;20060;-70
2021/12/08 14:01:40;;;;;;;47.30;17.55;;;;;;;;;;5020696;28;20078;-70
2021/12/08 14:04:06;;;;;;;45.53;16.48;;;;;;;;;;5024713;28;20061;-70
2021/12/08 14:06:32;;;;;;;46.10;16.02;;;;;;;;;;5027112;28;20029;-70
2021/12/08 14:08:58;;;;;;;44.15;16.42;;;;;;;;;;5026407;28;20025;-70
2021/12/08 14:11:29;;;;;;;49.17;17.38;;;;;;;;;;5029056;28;20035;-70
2021/12/08 14:13:54;;;;;;;48.05;17.23;;;;;;;;;;5017703;28;20033;-70
2021/12/08 14:16:20;;;;;;;53.20;17.85;;;;;;;;;;5021767;28;20497;-70
2021/12/08 14:18:46;;;;;;;54.45;16.35;;;;;;;;;;5025086;28;20562;-69
2021/12/08 14:21:12;;;;;;;49.28;17.13;;;;;;;;;;5022654;28;20131;-69
2021/12/08 14:23:39;;;;;;;43.22;16.45;;;;;;;;;;5025467;28;20025;-70
2021/12/08 14:26:05;;;;;;;46.25;17.58;;;;;;;;;;5024381;28;20025;-70
2021/12/08 14:28:38;;;;;;;51.92;18.27;;;;;;;;;;5024604;28;20044;-70
2021/12/08 14:31:04;;;;;;;52.60;18.10;;;;;;;;;;5020597;28;20033;-70
2021/12/08 14:33:30;;;;;;;50.28;17.83;;;;;;;;;;5026024;28;20512;-70
2021/12/08 14:35:56;;;;;;;48.55;17.52;;;;;;;;;;5034159;28;20453;-70
2021/12/08 14:38:22;;;;;;;49.60;18.10;;;;;;;;;;5028286;28;20059;-70
2021/12/08 14:40:49;;;;;;;48.63;17.27;;;;;;;;;;5024239;28;20044;-69
2021/12/08 14:43:15;;;;;;;53.20;19.33;;;;;;;;;;5024280;28;20022;-70
2021/12/08 14:45:41;;;;;;;53.05;19.38;;;;;;;;;;5027549;28;20553;-70
2021/12/08 14:48:07;;;;;;;51.45;18.83;;;;;;;;;;5015792;28;20040;-70
2021/12/08 14:50:33;;;;;;;52.33;18.88;;;;;;;;;;5025433;28;20786;-71
2021/12/08 14:52:59;;;;;;;57.15;18.55;;;;;;;;;;5024350;28;20029;-70
2021/12/08 14:55:25;;;;;;;51.17;17.83;;;;;;;;;;5027215;28;20039;-70
2021/12/08 14:57:55;;;;;;;51.47;18.38;;;;;;;;;;5024815;28;20053;-70
2021/12/08 15:00:22;;;;;;;53.17;19.60;;;;;;;;;;5024049;28;20044;-70